<?xml version="1.0" encoding="UTF-8" standalone="no" ?>
<gpx xmlns="http://www.topografix.com/GPX/1/1" xmlns:xsi="http://www.w3.org/2001/XMLSchema-instance" xsi:schemaLocation="http://www.topografix.com/GPX/1/1 http://www.topografix.com/GPX/1/1/gpx.xsd" version="1.1" creator="VisuGPX - https://www.visugpx.com">
  <metadata>
    <name>2025-08-24 11:12</name>
    <desc><![CDATA[<p>Heure de départ: 11:18 24 août 2025<br/>Heure d'arrivée: 15:38 24 août 2025<br/>Distance: 53,3 km (04:20)<br/>Temps déplacement: 03:17<br/>Vitesse moyenne: 12,31 km/h<br/>Vitesse moyenne mouv.: 16,21 km/h<br/>Vitesse Max.: 46,51 km/h<br/>Altitude minimale: 270 m<br/>Altitude maximale: 572 m<br/>Vitesse de montée: 535 m/h<br/>Vitesse de descente: -1099,3 m/h<br/>Gain d'altitude: 1547 m<br/>Perte d'altitude: -1541 m<br/>Temps de montée: 02:53<br/>Temps de descente: 01:24<br/></p><hr align="center" width="480" style="height: 2px; width: 517px"/>]]></desc>
  </metadata>
  <wpt lat="46.17043" lon="3.43113">
    <ele>310.75</ele>
    <name><![CDATA[0000098]]></name>
    <type><![CDATA[Point de départ]]></type>
  </wpt>
  <wpt lat="46.1705" lon="3.43107">
    <ele>312.6</ele>
    <name><![CDATA[0000099]]></name>
    <desc><![CDATA[<p><br /><h3>Nom: Segment: 1</h3><br />Heure de départ: 11:18 24 août 2025<br/>Heure d'arrivée: 15:38 24 août 2025<br/>Distance: 53,3km (04:20)<br/>Temps déplacement: 03:17<br/>Vitesse moyenne: 12,31 km/h<br/>Vitesse moyenne mouv.: 16,11 km/h<br/>Vitesse Max.: 46,51 km/h<br/>Altitude minimale: 270 m<br/>Altitude maximale: 572 m<br/>Vitesse de montée: 714 m/h<br/>Vitesse de descente: -1371,7 m/h<br/>Gain d'altitude: 2007 m<br/>Perte d'altitude: -2005 m<br/>Temps de montée: 02:48<br/>Temps de descente: 01:27<br/></p>]]></desc>
    <type><![CDATA[Point d'arrivée]]></type>
  </wpt>
  <wpt lat="46.1705" lon="3.43107">
    <ele>312.6</ele>
    <name><![CDATA[0000099]]></name>
    <desc><![CDATA[<p><br /><h3>Nom: Segment: 1</h3><br />Heure de départ: 11:18 24 août 2025<br/>Heure d'arrivée: 15:38 24 août 2025<br/>Distance: 53,3km (04:20)<br/>Temps déplacement: 03:17<br/>Vitesse moyenne: 12,31 km/h<br/>Vitesse moyenne mouv.: 16,11 km/h<br/>Vitesse Max.: 46,51 km/h<br/>Altitude minimale: 270 m<br/>Altitude maximale: 572 m<br/>Vitesse de montée: 714 m/h<br/>Vitesse de descente: -1371,7 m/h<br/>Gain d'altitude: 2007 m<br/>Perte d'altitude: -2005 m<br/>Temps de montée: 02:48<br/>Temps de descente: 01:27<br/></p>]]></desc>
    <type><![CDATA[Point d'arrivée]]></type>
  </wpt>
  <trk>
    <name><![CDATA[2025-08-24 11:12]]></name>
    <desc><![CDATA[<p>Heure de départ: 11:18 24 août 2025<br/>Heure d'arrivée: 15:38 24 août 2025<br/>Distance: 53,3 km (04:20)<br/>Temps déplacement: 03:17<br/>Vitesse moyenne: 12,31 km/h<br/>Vitesse moyenne mouv.: 16,21 km/h<br/>Vitesse Max.: 46,51 km/h<br/>Altitude minimale: 270 m<br/>Altitude maximale: 572 m<br/>Vitesse de montée: 535 m/h<br/>Vitesse de descente: -1099,3 m/h<br/>Gain d'altitude: 1547 m<br/>Perte d'altitude: -1541 m<br/>Temps de montée: 02:53<br/>Temps de descente: 01:24<br/></p><hr align="center" width="480" style="height: 2px; width: 517px"/>]]></desc>
    <trkseg>
      <trkpt lat="46.17043" lon="3.43113">
        <ele>310.75</ele>
        <time>2025-08-24T09:18:09Z</time>
      </trkpt>
      <trkpt lat="46.17007" lon="3.42961">
        <ele>315.47</ele>
        <time>2025-08-24T09:20:41Z</time>
      </trkpt>
      <trkpt lat="46.17084" lon="3.42882">
        <ele>305.59</ele>
        <time>2025-08-24T09:21:05Z</time>
      </trkpt>
      <trkpt lat="46.17158" lon="3.42897">
        <ele>303.04</ele>
        <time>2025-08-24T09:21:21Z</time>
      </trkpt>
      <trkpt lat="46.17234" lon="3.42882">
        <ele>300.98</ele>
        <time>2025-08-24T09:21:37Z</time>
      </trkpt>
      <trkpt lat="46.17326" lon="3.42907">
        <ele>305.81</ele>
        <time>2025-08-24T09:22:01Z</time>
      </trkpt>
      <trkpt lat="46.17412" lon="3.4297">
        <ele>304.51</ele>
        <time>2025-08-24T09:22:25Z</time>
      </trkpt>
      <trkpt lat="46.17486" lon="3.43034">
        <ele>307.1</ele>
        <time>2025-08-24T09:22:57Z</time>
      </trkpt>
      <trkpt lat="46.17562" lon="3.43101">
        <ele>313.95</ele>
        <time>2025-08-24T09:23:29Z</time>
      </trkpt>
      <trkpt lat="46.17634" lon="3.43164">
        <ele>319.63</ele>
        <time>2025-08-24T09:24:01Z</time>
      </trkpt>
      <trkpt lat="46.17651" lon="3.4328">
        <ele>327.68</ele>
        <time>2025-08-24T09:24:41Z</time>
      </trkpt>
      <trkpt lat="46.17633" lon="3.43403">
        <ele>331.73</ele>
        <time>2025-08-24T09:25:13Z</time>
      </trkpt>
      <trkpt lat="46.17546" lon="3.43434">
        <ele>338.6</ele>
        <time>2025-08-24T09:25:37Z</time>
      </trkpt>
      <trkpt lat="46.17452" lon="3.43461">
        <ele>343.78</ele>
        <time>2025-08-24T09:26:01Z</time>
      </trkpt>
      <trkpt lat="46.17453" lon="3.43567">
        <ele>338.42</ele>
        <time>2025-08-24T09:26:25Z</time>
      </trkpt>
      <trkpt lat="46.17426" lon="3.43749">
        <ele>324.87</ele>
        <time>2025-08-24T09:26:41Z</time>
      </trkpt>
      <trkpt lat="46.17351" lon="3.43808">
        <ele>318.67</ele>
        <time>2025-08-24T09:26:57Z</time>
      </trkpt>
      <trkpt lat="46.17322" lon="3.43934">
        <ele>322.18</ele>
        <time>2025-08-24T09:27:29Z</time>
      </trkpt>
      <trkpt lat="46.1724" lon="3.43928">
        <ele>336.66</ele>
        <time>2025-08-24T09:28:41Z</time>
      </trkpt>
      <trkpt lat="46.17156" lon="3.43955">
        <ele>335.56</ele>
        <time>2025-08-24T09:29:21Z</time>
      </trkpt>
      <trkpt lat="46.17071" lon="3.43992">
        <ele>341.26</ele>
        <time>2025-08-24T09:30:01Z</time>
      </trkpt>
      <trkpt lat="46.17001" lon="3.44018">
        <ele>345.83</ele>
        <time>2025-08-24T09:30:33Z</time>
      </trkpt>
      <trkpt lat="46.16929" lon="3.4403">
        <ele>355.29</ele>
        <time>2025-08-24T09:31:05Z</time>
      </trkpt>
      <trkpt lat="46.16857" lon="3.44068">
        <ele>356.95</ele>
        <time>2025-08-24T09:31:37Z</time>
      </trkpt>
      <trkpt lat="46.16813" lon="3.4416">
        <ele>365.09</ele>
        <time>2025-08-24T09:32:09Z</time>
      </trkpt>
      <trkpt lat="46.16784" lon="3.44267">
        <ele>370.25</ele>
        <time>2025-08-24T09:32:41Z</time>
      </trkpt>
      <trkpt lat="46.16706" lon="3.44304">
        <ele>378.72</ele>
        <time>2025-08-24T09:33:21Z</time>
      </trkpt>
      <trkpt lat="46.16626" lon="3.4436">
        <ele>380.92</ele>
        <time>2025-08-24T09:33:53Z</time>
      </trkpt>
      <trkpt lat="46.16534" lon="3.44413">
        <ele>381.84</ele>
        <time>2025-08-24T09:34:25Z</time>
      </trkpt>
      <trkpt lat="46.16458" lon="3.44488">
        <ele>384.04</ele>
        <time>2025-08-24T09:34:49Z</time>
      </trkpt>
      <trkpt lat="46.16382" lon="3.44561">
        <ele>387.33</ele>
        <time>2025-08-24T09:35:13Z</time>
      </trkpt>
      <trkpt lat="46.16284" lon="3.44592">
        <ele>387.66</ele>
        <time>2025-08-24T09:35:37Z</time>
      </trkpt>
      <trkpt lat="46.16167" lon="3.44649">
        <ele>390.85</ele>
        <time>2025-08-24T09:36:01Z</time>
      </trkpt>
      <trkpt lat="46.16097" lon="3.44698">
        <ele>395.61</ele>
        <time>2025-08-24T09:36:17Z</time>
      </trkpt>
      <trkpt lat="46.16012" lon="3.44688">
        <ele>395.45</ele>
        <time>2025-08-24T09:36:33Z</time>
      </trkpt>
      <trkpt lat="46.15917" lon="3.44705">
        <ele>395.97</ele>
        <time>2025-08-24T09:36:49Z</time>
      </trkpt>
      <trkpt lat="46.15818" lon="3.4476">
        <ele>395.25</ele>
        <time>2025-08-24T09:37:05Z</time>
      </trkpt>
      <trkpt lat="46.15704" lon="3.44812">
        <ele>391.21</ele>
        <time>2025-08-24T09:37:21Z</time>
      </trkpt>
      <trkpt lat="46.15591" lon="3.44929">
        <ele>377.19</ele>
        <time>2025-08-24T09:37:37Z</time>
      </trkpt>
      <trkpt lat="46.15578" lon="3.45059">
        <ele>370.89</ele>
        <time>2025-08-24T09:38:01Z</time>
      </trkpt>
      <trkpt lat="46.15592" lon="3.45187">
        <ele>377.02</ele>
        <time>2025-08-24T09:38:25Z</time>
      </trkpt>
      <trkpt lat="46.15581" lon="3.45306">
        <ele>372.03</ele>
        <time>2025-08-24T09:38:41Z</time>
      </trkpt>
      <trkpt lat="46.15558" lon="3.45437">
        <ele>347.75</ele>
        <time>2025-08-24T09:38:57Z</time>
      </trkpt>
      <trkpt lat="46.1559" lon="3.45606">
        <ele>327.07</ele>
        <time>2025-08-24T09:39:13Z</time>
      </trkpt>
      <trkpt lat="46.15598" lon="3.45717">
        <ele>324.42</ele>
        <time>2025-08-24T09:39:29Z</time>
      </trkpt>
      <trkpt lat="46.156" lon="3.45863">
        <ele>317.53</ele>
        <time>2025-08-24T09:39:53Z</time>
      </trkpt>
      <trkpt lat="46.1557" lon="3.45984">
        <ele>316.07</ele>
        <time>2025-08-24T09:40:09Z</time>
      </trkpt>
      <trkpt lat="46.15551" lon="3.46114">
        <ele>309.6</ele>
        <time>2025-08-24T09:40:25Z</time>
      </trkpt>
      <trkpt lat="46.15498" lon="3.46248">
        <ele>305.85</ele>
        <time>2025-08-24T09:40:41Z</time>
      </trkpt>
      <trkpt lat="46.15454" lon="3.46369">
        <ele>309.44</ele>
        <time>2025-08-24T09:40:57Z</time>
      </trkpt>
      <trkpt lat="46.15421" lon="3.46488">
        <ele>309.38</ele>
        <time>2025-08-24T09:41:13Z</time>
      </trkpt>
      <trkpt lat="46.15359" lon="3.46592">
        <ele>306.13</ele>
        <time>2025-08-24T09:41:29Z</time>
      </trkpt>
      <trkpt lat="46.15274" lon="3.46537">
        <ele>310.75</ele>
        <time>2025-08-24T09:41:53Z</time>
      </trkpt>
      <trkpt lat="46.15215" lon="3.46452">
        <ele>314.16</ele>
        <time>2025-08-24T09:42:17Z</time>
      </trkpt>
      <trkpt lat="46.1514" lon="3.46393">
        <ele>314.71</ele>
        <time>2025-08-24T09:42:41Z</time>
      </trkpt>
      <trkpt lat="46.15081" lon="3.46318">
        <ele>327.54</ele>
        <time>2025-08-24T09:43:05Z</time>
      </trkpt>
      <trkpt lat="46.14991" lon="3.46348">
        <ele>326.21</ele>
        <time>2025-08-24T09:43:37Z</time>
      </trkpt>
      <trkpt lat="46.14914" lon="3.46401">
        <ele>330.44</ele>
        <time>2025-08-24T09:44:09Z</time>
      </trkpt>
      <trkpt lat="46.14826" lon="3.46408">
        <ele>337.42</ele>
        <time>2025-08-24T09:44:41Z</time>
      </trkpt>
      <trkpt lat="46.14739" lon="3.46392">
        <ele>344.4</ele>
        <time>2025-08-24T09:45:13Z</time>
      </trkpt>
      <trkpt lat="46.14654" lon="3.46404">
        <ele>348.99</ele>
        <time>2025-08-24T09:45:45Z</time>
      </trkpt>
      <trkpt lat="46.14587" lon="3.46494">
        <ele>351.41</ele>
        <time>2025-08-24T09:46:17Z</time>
      </trkpt>
      <trkpt lat="46.14504" lon="3.46576">
        <ele>339.56</ele>
        <time>2025-08-24T09:46:33Z</time>
      </trkpt>
      <trkpt lat="46.14532" lon="3.46714">
        <ele>333.44</ele>
        <time>2025-08-24T09:46:57Z</time>
      </trkpt>
      <trkpt lat="46.14576" lon="3.46812">
        <ele>334.96</ele>
        <time>2025-08-24T09:47:13Z</time>
      </trkpt>
      <trkpt lat="46.14593" lon="3.46928">
        <ele>327.79</ele>
        <time>2025-08-24T09:47:37Z</time>
      </trkpt>
      <trkpt lat="46.14559" lon="3.47034">
        <ele>329.05</ele>
        <time>2025-08-24T09:47:53Z</time>
      </trkpt>
      <trkpt lat="46.14527" lon="3.4713">
        <ele>335.36</ele>
        <time>2025-08-24T09:48:17Z</time>
      </trkpt>
      <trkpt lat="46.14462" lon="3.47232">
        <ele>347.57</ele>
        <time>2025-08-24T09:48:49Z</time>
      </trkpt>
      <trkpt lat="46.14524" lon="3.47319">
        <ele>346.49</ele>
        <time>2025-08-24T09:49:13Z</time>
      </trkpt>
      <trkpt lat="46.14579" lon="3.47394">
        <ele>344.43</ele>
        <time>2025-08-24T09:49:29Z</time>
      </trkpt>
      <trkpt lat="46.14507" lon="3.47476">
        <ele>339.54</ele>
        <time>2025-08-24T09:49:53Z</time>
      </trkpt>
      <trkpt lat="46.14427" lon="3.47427">
        <ele>339.61</ele>
        <time>2025-08-24T09:50:09Z</time>
      </trkpt>
      <trkpt lat="46.14334" lon="3.47377">
        <ele>337.05</ele>
        <time>2025-08-24T09:50:25Z</time>
      </trkpt>
      <trkpt lat="46.14206" lon="3.47323">
        <ele>328.05</ele>
        <time>2025-08-24T09:50:49Z</time>
      </trkpt>
      <trkpt lat="46.14071" lon="3.47337">
        <ele>305.81</ele>
        <time>2025-08-24T09:51:05Z</time>
      </trkpt>
      <trkpt lat="46.13995" lon="3.47488">
        <ele>293.98</ele>
        <time>2025-08-24T09:51:21Z</time>
      </trkpt>
      <trkpt lat="46.13919" lon="3.47493">
        <ele>295.76</ele>
        <time>2025-08-24T09:51:45Z</time>
      </trkpt>
      <trkpt lat="46.13824" lon="3.47455">
        <ele>293.44</ele>
        <time>2025-08-24T09:52:01Z</time>
      </trkpt>
      <trkpt lat="46.1378" lon="3.47548">
        <ele>300.86</ele>
        <time>2025-08-24T09:52:33Z</time>
      </trkpt>
      <trkpt lat="46.13757" lon="3.47677">
        <ele>301.41</ele>
        <time>2025-08-24T09:53:05Z</time>
      </trkpt>
      <trkpt lat="46.13755" lon="3.47802">
        <ele>307.9</ele>
        <time>2025-08-24T09:53:37Z</time>
      </trkpt>
      <trkpt lat="46.13794" lon="3.47907">
        <ele>318.12</ele>
        <time>2025-08-24T09:54:25Z</time>
      </trkpt>
      <trkpt lat="46.13797" lon="3.48023">
        <ele>317</ele>
        <time>2025-08-24T09:55:05Z</time>
      </trkpt>
      <trkpt lat="46.13746" lon="3.48111">
        <ele>332.14</ele>
        <time>2025-08-24T09:55:45Z</time>
      </trkpt>
      <trkpt lat="46.13745" lon="3.48238">
        <ele>330.33</ele>
        <time>2025-08-24T09:56:17Z</time>
      </trkpt>
      <trkpt lat="46.13845" lon="3.48331">
        <ele>325.08</ele>
        <time>2025-08-24T09:56:33Z</time>
      </trkpt>
      <trkpt lat="46.13895" lon="3.48408">
        <ele>327.76</ele>
        <time>2025-08-24T09:56:49Z</time>
      </trkpt>
      <trkpt lat="46.1389" lon="3.4852">
        <ele>331.09</ele>
        <time>2025-08-24T09:57:05Z</time>
      </trkpt>
      <trkpt lat="46.13945" lon="3.48619">
        <ele>339.76</ele>
        <time>2025-08-24T09:57:45Z</time>
      </trkpt>
      <trkpt lat="46.14001" lon="3.48698">
        <ele>360.64</ele>
        <time>2025-08-24T09:58:17Z</time>
      </trkpt>
      <trkpt lat="46.14058" lon="3.48784">
        <ele>367.47</ele>
        <time>2025-08-24T09:58:57Z</time>
      </trkpt>
      <trkpt lat="46.14116" lon="3.48862">
        <ele>378.15</ele>
        <time>2025-08-24T09:59:37Z</time>
      </trkpt>
      <trkpt lat="46.14186" lon="3.48954">
        <ele>380.06</ele>
        <time>2025-08-24T10:00:41Z</time>
      </trkpt>
      <trkpt lat="46.14255" lon="3.49005">
        <ele>374.77</ele>
        <time>2025-08-24T10:01:13Z</time>
      </trkpt>
      <trkpt lat="46.14312" lon="3.49075">
        <ele>380.74</ele>
        <time>2025-08-24T10:01:53Z</time>
      </trkpt>
      <trkpt lat="46.14337" lon="3.49183">
        <ele>393.78</ele>
        <time>2025-08-24T10:02:33Z</time>
      </trkpt>
      <trkpt lat="46.14396" lon="3.4927">
        <ele>399.87</ele>
        <time>2025-08-24T10:03:05Z</time>
      </trkpt>
      <trkpt lat="46.14442" lon="3.49353">
        <ele>391.21</ele>
        <time>2025-08-24T10:03:37Z</time>
      </trkpt>
      <trkpt lat="46.14368" lon="3.49337">
        <ele>384.85</ele>
        <time>2025-08-24T10:04:33Z</time>
      </trkpt>
      <trkpt lat="46.14292" lon="3.49354">
        <ele>390.43</ele>
        <time>2025-08-24T10:05:13Z</time>
      </trkpt>
      <trkpt lat="46.14221" lon="3.49393">
        <ele>405.79</ele>
        <time>2025-08-24T10:05:53Z</time>
      </trkpt>
      <trkpt lat="46.14146" lon="3.49445">
        <ele>414.84</ele>
        <time>2025-08-24T10:06:33Z</time>
      </trkpt>
      <trkpt lat="46.14067" lon="3.495">
        <ele>421.28</ele>
        <time>2025-08-24T10:07:13Z</time>
      </trkpt>
      <trkpt lat="46.13993" lon="3.49569">
        <ele>427.07</ele>
        <time>2025-08-24T10:07:45Z</time>
      </trkpt>
      <trkpt lat="46.13908" lon="3.49571">
        <ele>427.67</ele>
        <time>2025-08-24T10:08:09Z</time>
      </trkpt>
      <trkpt lat="46.13782" lon="3.4959">
        <ele>419.51</ele>
        <time>2025-08-24T10:08:33Z</time>
      </trkpt>
      <trkpt lat="46.13736" lon="3.49747">
        <ele>408.99</ele>
        <time>2025-08-24T10:08:49Z</time>
      </trkpt>
      <trkpt lat="46.13667" lon="3.49854">
        <ele>398.45</ele>
        <time>2025-08-24T10:09:05Z</time>
      </trkpt>
      <trkpt lat="46.13576" lon="3.49974">
        <ele>389.65</ele>
        <time>2025-08-24T10:09:21Z</time>
      </trkpt>
      <trkpt lat="46.13514" lon="3.50045">
        <ele>384.75</ele>
        <time>2025-08-24T10:09:29Z</time>
      </trkpt>
      <trkpt lat="46.13406" lon="3.50043">
        <ele>367.18</ele>
        <time>2025-08-24T10:09:45Z</time>
      </trkpt>
      <trkpt lat="46.1343" lon="3.5017">
        <ele>352.8</ele>
        <time>2025-08-24T10:10:01Z</time>
      </trkpt>
      <trkpt lat="46.13374" lon="3.50259">
        <ele>336.96</ele>
        <time>2025-08-24T10:10:33Z</time>
      </trkpt>
      <trkpt lat="46.13334" lon="3.50367">
        <ele>333.17</ele>
        <time>2025-08-24T10:11:21Z</time>
      </trkpt>
      <trkpt lat="46.13275" lon="3.50435">
        <ele>346.54</ele>
        <time>2025-08-24T10:12:33Z</time>
      </trkpt>
      <trkpt lat="46.13211" lon="3.50492">
        <ele>354.83</ele>
        <time>2025-08-24T10:13:29Z</time>
      </trkpt>
      <trkpt lat="46.13144" lon="3.50534">
        <ele>369.17</ele>
        <time>2025-08-24T10:14:33Z</time>
      </trkpt>
      <trkpt lat="46.13065" lon="3.50594">
        <ele>380.4</ele>
        <time>2025-08-24T10:15:29Z</time>
      </trkpt>
      <trkpt lat="46.13019" lon="3.50674">
        <ele>393.83</ele>
        <time>2025-08-24T10:16:09Z</time>
      </trkpt>
      <trkpt lat="46.12945" lon="3.5076">
        <ele>405.91</ele>
        <time>2025-08-24T10:16:33Z</time>
      </trkpt>
      <trkpt lat="46.12864" lon="3.50722">
        <ele>399.57</ele>
        <time>2025-08-24T10:17:13Z</time>
      </trkpt>
      <trkpt lat="46.12786" lon="3.50733">
        <ele>405.15</ele>
        <time>2025-08-24T10:17:37Z</time>
      </trkpt>
      <trkpt lat="46.12709" lon="3.50771">
        <ele>405.02</ele>
        <time>2025-08-24T10:18:01Z</time>
      </trkpt>
      <trkpt lat="46.12636" lon="3.50808">
        <ele>409.79</ele>
        <time>2025-08-24T10:18:25Z</time>
      </trkpt>
      <trkpt lat="46.1256" lon="3.50855">
        <ele>413.52</ele>
        <time>2025-08-24T10:18:49Z</time>
      </trkpt>
      <trkpt lat="46.12488" lon="3.50911">
        <ele>418.11</ele>
        <time>2025-08-24T10:19:13Z</time>
      </trkpt>
      <trkpt lat="46.12433" lon="3.51003">
        <ele>419.55</ele>
        <time>2025-08-24T10:19:37Z</time>
      </trkpt>
      <trkpt lat="46.12377" lon="3.51092">
        <ele>421.94</ele>
        <time>2025-08-24T10:20:01Z</time>
      </trkpt>
      <trkpt lat="46.12319" lon="3.51171">
        <ele>420.08</ele>
        <time>2025-08-24T10:20:17Z</time>
      </trkpt>
      <trkpt lat="46.12322" lon="3.51359">
        <ele>412.23</ele>
        <time>2025-08-24T10:20:33Z</time>
      </trkpt>
      <trkpt lat="46.12309" lon="3.51472">
        <ele>405.25</ele>
        <time>2025-08-24T10:20:41Z</time>
      </trkpt>
      <trkpt lat="46.12271" lon="3.51634">
        <ele>398.32</ele>
        <time>2025-08-24T10:20:57Z</time>
      </trkpt>
      <trkpt lat="46.12228" lon="3.51751">
        <ele>397.27</ele>
        <time>2025-08-24T10:21:13Z</time>
      </trkpt>
      <trkpt lat="46.12182" lon="3.51878">
        <ele>398.91</ele>
        <time>2025-08-24T10:21:29Z</time>
      </trkpt>
      <trkpt lat="46.12138" lon="3.51997">
        <ele>399.29</ele>
        <time>2025-08-24T10:21:45Z</time>
      </trkpt>
      <trkpt lat="46.12105" lon="3.52092">
        <ele>399.33</ele>
        <time>2025-08-24T10:22:01Z</time>
      </trkpt>
      <trkpt lat="46.12058" lon="3.52216">
        <ele>402.29</ele>
        <time>2025-08-24T10:22:25Z</time>
      </trkpt>
      <trkpt lat="46.12008" lon="3.52342">
        <ele>405.98</ele>
        <time>2025-08-24T10:22:49Z</time>
      </trkpt>
      <trkpt lat="46.11954" lon="3.52466">
        <ele>409.1</ele>
        <time>2025-08-24T10:23:13Z</time>
      </trkpt>
      <trkpt lat="46.11901" lon="3.52589">
        <ele>413.89</ele>
        <time>2025-08-24T10:23:37Z</time>
      </trkpt>
      <trkpt lat="46.11847" lon="3.52713">
        <ele>416.98</ele>
        <time>2025-08-24T10:24:01Z</time>
      </trkpt>
      <trkpt lat="46.11792" lon="3.52837">
        <ele>418.29</ele>
        <time>2025-08-24T10:24:25Z</time>
      </trkpt>
      <trkpt lat="46.11756" lon="3.52939">
        <ele>423.64</ele>
        <time>2025-08-24T10:24:41Z</time>
      </trkpt>
      <trkpt lat="46.1171" lon="3.53031">
        <ele>421.27</ele>
        <time>2025-08-24T10:24:57Z</time>
      </trkpt>
      <trkpt lat="46.11624" lon="3.53106">
        <ele>414.75</ele>
        <time>2025-08-24T10:25:13Z</time>
      </trkpt>
      <trkpt lat="46.11557" lon="3.53005">
        <ele>417.45</ele>
        <time>2025-08-24T10:25:29Z</time>
      </trkpt>
      <trkpt lat="46.11453" lon="3.52965">
        <ele>415.68</ele>
        <time>2025-08-24T10:25:45Z</time>
      </trkpt>
      <trkpt lat="46.11365" lon="3.52936">
        <ele>418.85</ele>
        <time>2025-08-24T10:26:01Z</time>
      </trkpt>
      <trkpt lat="46.11299" lon="3.52985">
        <ele>419.55</ele>
        <time>2025-08-24T10:26:17Z</time>
      </trkpt>
      <trkpt lat="46.11222" lon="3.53071">
        <ele>424.99</ele>
        <time>2025-08-24T10:26:41Z</time>
      </trkpt>
      <trkpt lat="46.11142" lon="3.52973">
        <ele>429.58</ele>
        <time>2025-08-24T10:27:05Z</time>
      </trkpt>
      <trkpt lat="46.11086" lon="3.52868">
        <ele>428.04</ele>
        <time>2025-08-24T10:27:21Z</time>
      </trkpt>
      <trkpt lat="46.11025" lon="3.52759">
        <ele>426.12</ele>
        <time>2025-08-24T10:27:37Z</time>
      </trkpt>
      <trkpt lat="46.10957" lon="3.52638">
        <ele>423.54</ele>
        <time>2025-08-24T10:27:53Z</time>
      </trkpt>
      <trkpt lat="46.10866" lon="3.52533">
        <ele>422.91</ele>
        <time>2025-08-24T10:28:09Z</time>
      </trkpt>
      <trkpt lat="46.10767" lon="3.52561">
        <ele>414.11</ele>
        <time>2025-08-24T10:28:25Z</time>
      </trkpt>
      <trkpt lat="46.10683" lon="3.52612">
        <ele>424.24</ele>
        <time>2025-08-24T10:28:49Z</time>
      </trkpt>
      <trkpt lat="46.10598" lon="3.52657">
        <ele>432.65</ele>
        <time>2025-08-24T10:29:21Z</time>
      </trkpt>
      <trkpt lat="46.10502" lon="3.52685">
        <ele>445.94</ele>
        <time>2025-08-24T10:29:53Z</time>
      </trkpt>
      <trkpt lat="46.10418" lon="3.52706">
        <ele>445.17</ele>
        <time>2025-08-24T10:30:17Z</time>
      </trkpt>
      <trkpt lat="46.10348" lon="3.52779">
        <ele>442.61</ele>
        <time>2025-08-24T10:30:41Z</time>
      </trkpt>
      <trkpt lat="46.10292" lon="3.52869">
        <ele>443.24</ele>
        <time>2025-08-24T10:31:05Z</time>
      </trkpt>
      <trkpt lat="46.10226" lon="3.52969">
        <ele>447.46</ele>
        <time>2025-08-24T10:31:37Z</time>
      </trkpt>
      <trkpt lat="46.10159" lon="3.53057">
        <ele>456.46</ele>
        <time>2025-08-24T10:32:09Z</time>
      </trkpt>
      <trkpt lat="46.10103" lon="3.53128">
        <ele>463.69</ele>
        <time>2025-08-24T10:32:41Z</time>
      </trkpt>
      <trkpt lat="46.1005" lon="3.5322">
        <ele>474.14</ele>
        <time>2025-08-24T10:33:21Z</time>
      </trkpt>
      <trkpt lat="46.09972" lon="3.53271">
        <ele>480.17</ele>
        <time>2025-08-24T10:34:01Z</time>
      </trkpt>
      <trkpt lat="46.09929" lon="3.53393">
        <ele>478.03</ele>
        <time>2025-08-24T10:34:25Z</time>
      </trkpt>
      <trkpt lat="46.09816" lon="3.5344">
        <ele>468.63</ele>
        <time>2025-08-24T10:34:41Z</time>
      </trkpt>
      <trkpt lat="46.09693" lon="3.53562">
        <ele>457.59</ele>
        <time>2025-08-24T10:34:57Z</time>
      </trkpt>
      <trkpt lat="46.09619" lon="3.53606">
        <ele>445.03</ele>
        <time>2025-08-24T10:35:05Z</time>
      </trkpt>
      <trkpt lat="46.09519" lon="3.53731">
        <ele>431.81</ele>
        <time>2025-08-24T10:35:21Z</time>
      </trkpt>
      <trkpt lat="46.09463" lon="3.53802">
        <ele>428.27</ele>
        <time>2025-08-24T10:35:29Z</time>
      </trkpt>
      <trkpt lat="46.09329" lon="3.53814">
        <ele>413.12</ele>
        <time>2025-08-24T10:35:45Z</time>
      </trkpt>
      <trkpt lat="46.09248" lon="3.53788">
        <ele>403.69</ele>
        <time>2025-08-24T10:35:53Z</time>
      </trkpt>
      <trkpt lat="46.09176" lon="3.5376">
        <ele>398.21</ele>
        <time>2025-08-24T10:36:01Z</time>
      </trkpt>
      <trkpt lat="46.09062" lon="3.53785">
        <ele>384.88</ele>
        <time>2025-08-24T10:36:17Z</time>
      </trkpt>
      <trkpt lat="46.08956" lon="3.53806">
        <ele>376.25</ele>
        <time>2025-08-24T10:36:33Z</time>
      </trkpt>
      <trkpt lat="46.08879" lon="3.53757">
        <ele>373.58</ele>
        <time>2025-08-24T10:36:49Z</time>
      </trkpt>
      <trkpt lat="46.08799" lon="3.53763">
        <ele>348.51</ele>
        <time>2025-08-24T10:37:21Z</time>
      </trkpt>
      <trkpt lat="46.08705" lon="3.53738">
        <ele>331.64</ele>
        <time>2025-08-24T10:37:53Z</time>
      </trkpt>
      <trkpt lat="46.08611" lon="3.53689">
        <ele>338.45</ele>
        <time>2025-08-24T10:38:17Z</time>
      </trkpt>
      <trkpt lat="46.08643" lon="3.53595">
        <ele>352.13</ele>
        <time>2025-08-24T10:38:57Z</time>
      </trkpt>
      <trkpt lat="46.08682" lon="3.53507">
        <ele>363.68</ele>
        <time>2025-08-24T10:39:53Z</time>
      </trkpt>
      <trkpt lat="46.08625" lon="3.53442">
        <ele>381.94</ele>
        <time>2025-08-24T10:40:57Z</time>
      </trkpt>
      <trkpt lat="46.08562" lon="3.53367">
        <ele>393.45</ele>
        <time>2025-08-24T10:41:53Z</time>
      </trkpt>
      <trkpt lat="46.085" lon="3.53289">
        <ele>401.71</ele>
        <time>2025-08-24T10:42:57Z</time>
      </trkpt>
      <trkpt lat="46.08469" lon="3.53188">
        <ele>407.34</ele>
        <time>2025-08-24T10:43:53Z</time>
      </trkpt>
      <trkpt lat="46.08437" lon="3.53089">
        <ele>415.11</ele>
        <time>2025-08-24T10:44:33Z</time>
      </trkpt>
      <trkpt lat="46.08402" lon="3.52993">
        <ele>428.93</ele>
        <time>2025-08-24T10:45:29Z</time>
      </trkpt>
      <trkpt lat="46.08353" lon="3.52907">
        <ele>442.26</ele>
        <time>2025-08-24T10:46:33Z</time>
      </trkpt>
      <trkpt lat="46.08286" lon="3.52861">
        <ele>454.54</ele>
        <time>2025-08-24T10:47:29Z</time>
      </trkpt>
      <trkpt lat="46.08215" lon="3.52819">
        <ele>461.43</ele>
        <time>2025-08-24T10:48:09Z</time>
      </trkpt>
      <trkpt lat="46.0814" lon="3.52771">
        <ele>465.13</ele>
        <time>2025-08-24T10:48:49Z</time>
      </trkpt>
      <trkpt lat="46.08074" lon="3.52709">
        <ele>472.39</ele>
        <time>2025-08-24T10:49:29Z</time>
      </trkpt>
      <trkpt lat="46.08" lon="3.52656">
        <ele>477.55</ele>
        <time>2025-08-24T10:50:25Z</time>
      </trkpt>
      <trkpt lat="46.07927" lon="3.52625">
        <ele>483.38</ele>
        <time>2025-08-24T10:51:13Z</time>
      </trkpt>
      <trkpt lat="46.07854" lon="3.52614">
        <ele>494.02</ele>
        <time>2025-08-24T10:51:53Z</time>
      </trkpt>
      <trkpt lat="46.07802" lon="3.52755">
        <ele>496.32</ele>
        <time>2025-08-24T10:52:25Z</time>
      </trkpt>
      <trkpt lat="46.07817" lon="3.52869">
        <ele>491.34</ele>
        <time>2025-08-24T10:52:41Z</time>
      </trkpt>
      <trkpt lat="46.07859" lon="3.52964">
        <ele>487.95</ele>
        <time>2025-08-24T10:53:05Z</time>
      </trkpt>
      <trkpt lat="46.07889" lon="3.53059">
        <ele>487.68</ele>
        <time>2025-08-24T10:53:21Z</time>
      </trkpt>
      <trkpt lat="46.07809" lon="3.53179">
        <ele>476.29</ele>
        <time>2025-08-24T10:53:45Z</time>
      </trkpt>
      <trkpt lat="46.0771" lon="3.53215">
        <ele>465.22</ele>
        <time>2025-08-24T10:54:01Z</time>
      </trkpt>
      <trkpt lat="46.07646" lon="3.53309">
        <ele>460.68</ele>
        <time>2025-08-24T10:54:25Z</time>
      </trkpt>
      <trkpt lat="46.0756" lon="3.53348">
        <ele>450.92</ele>
        <time>2025-08-24T10:54:49Z</time>
      </trkpt>
      <trkpt lat="46.07483" lon="3.53343">
        <ele>446.35</ele>
        <time>2025-08-24T10:55:05Z</time>
      </trkpt>
      <trkpt lat="46.0746" lon="3.53465">
        <ele>434.57</ele>
        <time>2025-08-24T10:55:21Z</time>
      </trkpt>
      <trkpt lat="46.07555" lon="3.5361">
        <ele>419.68</ele>
        <time>2025-08-24T10:55:37Z</time>
      </trkpt>
      <trkpt lat="46.07623" lon="3.5375">
        <ele>400.39</ele>
        <time>2025-08-24T10:56:01Z</time>
      </trkpt>
      <trkpt lat="46.07669" lon="3.53859">
        <ele>394.03</ele>
        <time>2025-08-24T10:56:17Z</time>
      </trkpt>
      <trkpt lat="46.07579" lon="3.53968">
        <ele>380.93</ele>
        <time>2025-08-24T10:56:33Z</time>
      </trkpt>
      <trkpt lat="46.07583" lon="3.54092">
        <ele>352.39</ele>
        <time>2025-08-24T10:57:05Z</time>
      </trkpt>
      <trkpt lat="46.07506" lon="3.54065">
        <ele>352.3</ele>
        <time>2025-08-24T10:57:53Z</time>
      </trkpt>
      <trkpt lat="46.07456" lon="3.5399">
        <ele>374.04</ele>
        <time>2025-08-24T11:00:41Z</time>
      </trkpt>
      <trkpt lat="46.07392" lon="3.53921">
        <ele>399.04</ele>
        <time>2025-08-24T11:03:21Z</time>
      </trkpt>
      <trkpt lat="46.07318" lon="3.53921">
        <ele>417.46</ele>
        <time>2025-08-24T11:04:49Z</time>
      </trkpt>
      <trkpt lat="46.07242" lon="3.539">
        <ele>437.54</ele>
        <time>2025-08-24T11:06:41Z</time>
      </trkpt>
      <trkpt lat="46.07166" lon="3.53924">
        <ele>445.54</ele>
        <time>2025-08-24T11:08:09Z</time>
      </trkpt>
      <trkpt lat="46.07091" lon="3.53891">
        <ele>463.9</ele>
        <time>2025-08-24T11:08:49Z</time>
      </trkpt>
      <trkpt lat="46.07028" lon="3.53824">
        <ele>485.39</ele>
        <time>2025-08-24T11:09:13Z</time>
      </trkpt>
      <trkpt lat="46.06948" lon="3.53821">
        <ele>501.73</ele>
        <time>2025-08-24T11:10:03Z</time>
      </trkpt>
      <trkpt lat="46.06859" lon="3.5382">
        <ele>480.13</ele>
        <time>2025-08-24T11:10:27Z</time>
      </trkpt>
      <trkpt lat="46.06792" lon="3.53856">
        <ele>464.46</ele>
        <time>2025-08-24T11:11:07Z</time>
      </trkpt>
      <trkpt lat="46.06724" lon="3.53909">
        <ele>461.91</ele>
        <time>2025-08-24T11:11:31Z</time>
      </trkpt>
      <trkpt lat="46.06652" lon="3.53972">
        <ele>455.72</ele>
        <time>2025-08-24T11:11:47Z</time>
      </trkpt>
      <trkpt lat="46.06671" lon="3.54119">
        <ele>450.55</ele>
        <time>2025-08-24T11:12:11Z</time>
      </trkpt>
      <trkpt lat="46.06739" lon="3.54246">
        <ele>436.76</ele>
        <time>2025-08-24T11:12:27Z</time>
      </trkpt>
      <trkpt lat="46.06786" lon="3.54422">
        <ele>415.84</ele>
        <time>2025-08-24T11:12:43Z</time>
      </trkpt>
      <trkpt lat="46.06781" lon="3.54555">
        <ele>402.2</ele>
        <time>2025-08-24T11:12:59Z</time>
      </trkpt>
      <trkpt lat="46.06772" lon="3.54688">
        <ele>399.67</ele>
        <time>2025-08-24T11:13:23Z</time>
      </trkpt>
      <trkpt lat="46.06814" lon="3.54787">
        <ele>412.04</ele>
        <time>2025-08-24T11:13:47Z</time>
      </trkpt>
      <trkpt lat="46.06903" lon="3.5489">
        <ele>426.14</ele>
        <time>2025-08-24T11:14:03Z</time>
      </trkpt>
      <trkpt lat="46.06831" lon="3.54917">
        <ele>403.17</ele>
        <time>2025-08-24T11:14:35Z</time>
      </trkpt>
      <trkpt lat="46.06733" lon="3.54966">
        <ele>384.65</ele>
        <time>2025-08-24T11:14:51Z</time>
      </trkpt>
      <trkpt lat="46.06645" lon="3.55009">
        <ele>375.78</ele>
        <time>2025-08-24T11:15:07Z</time>
      </trkpt>
      <trkpt lat="46.06568" lon="3.55075">
        <ele>389.41</ele>
        <time>2025-08-24T11:15:47Z</time>
      </trkpt>
      <trkpt lat="46.06538" lon="3.55173">
        <ele>396.3</ele>
        <time>2025-08-24T11:16:35Z</time>
      </trkpt>
      <trkpt lat="46.06539" lon="3.5529">
        <ele>408.83</ele>
        <time>2025-08-24T11:17:23Z</time>
      </trkpt>
      <trkpt lat="46.06593" lon="3.5539">
        <ele>407.05</ele>
        <time>2025-08-24T11:17:55Z</time>
      </trkpt>
      <trkpt lat="46.066" lon="3.55506">
        <ele>416.3</ele>
        <time>2025-08-24T11:18:35Z</time>
      </trkpt>
      <trkpt lat="46.06596" lon="3.55627">
        <ele>423.9</ele>
        <time>2025-08-24T11:19:07Z</time>
      </trkpt>
      <trkpt lat="46.0653" lon="3.55686">
        <ele>434.37</ele>
        <time>2025-08-24T11:19:47Z</time>
      </trkpt>
      <trkpt lat="46.06425" lon="3.55727">
        <ele>427.47</ele>
        <time>2025-08-24T11:20:11Z</time>
      </trkpt>
      <trkpt lat="46.06455" lon="3.55871">
        <ele>418.61</ele>
        <time>2025-08-24T11:20:27Z</time>
      </trkpt>
      <trkpt lat="46.06546" lon="3.55975">
        <ele>398.52</ele>
        <time>2025-08-24T11:20:43Z</time>
      </trkpt>
      <trkpt lat="46.06611" lon="3.56049">
        <ele>379.03</ele>
        <time>2025-08-24T11:20:59Z</time>
      </trkpt>
      <trkpt lat="46.06541" lon="3.5613">
        <ele>363.79</ele>
        <time>2025-08-24T11:21:23Z</time>
      </trkpt>
      <trkpt lat="46.06476" lon="3.56208">
        <ele>357.33</ele>
        <time>2025-08-24T11:21:47Z</time>
      </trkpt>
      <trkpt lat="46.06409" lon="3.56269">
        <ele>352.89</ele>
        <time>2025-08-24T11:22:03Z</time>
      </trkpt>
      <trkpt lat="46.06344" lon="3.56345">
        <ele>357.22</ele>
        <time>2025-08-24T11:22:27Z</time>
      </trkpt>
      <trkpt lat="46.06271" lon="3.56407">
        <ele>359.41</ele>
        <time>2025-08-24T11:22:51Z</time>
      </trkpt>
      <trkpt lat="46.06196" lon="3.56445">
        <ele>363.25</ele>
        <time>2025-08-24T11:23:15Z</time>
      </trkpt>
      <trkpt lat="46.06119" lon="3.56481">
        <ele>387.19</ele>
        <time>2025-08-24T11:23:39Z</time>
      </trkpt>
      <trkpt lat="46.06029" lon="3.56529">
        <ele>399.45</ele>
        <time>2025-08-24T11:24:11Z</time>
      </trkpt>
      <trkpt lat="46.05924" lon="3.56607">
        <ele>392.93</ele>
        <time>2025-08-24T11:24:27Z</time>
      </trkpt>
      <trkpt lat="46.05898" lon="3.56768">
        <ele>364.52</ele>
        <time>2025-08-24T11:24:43Z</time>
      </trkpt>
      <trkpt lat="46.05868" lon="3.56891">
        <ele>357.92</ele>
        <time>2025-08-24T11:25:07Z</time>
      </trkpt>
      <trkpt lat="46.05873" lon="3.56996">
        <ele>368.31</ele>
        <time>2025-08-24T11:25:31Z</time>
      </trkpt>
      <trkpt lat="46.05809" lon="3.57048">
        <ele>367.38</ele>
        <time>2025-08-24T11:25:47Z</time>
      </trkpt>
      <trkpt lat="46.0573" lon="3.57051">
        <ele>363.75</ele>
        <time>2025-08-24T11:26:19Z</time>
      </trkpt>
      <trkpt lat="46.05647" lon="3.57103">
        <ele>365.51</ele>
        <time>2025-08-24T11:26:43Z</time>
      </trkpt>
      <trkpt lat="46.05558" lon="3.57154">
        <ele>365.38</ele>
        <time>2025-08-24T11:27:07Z</time>
      </trkpt>
      <trkpt lat="46.05476" lon="3.57229">
        <ele>372.02</ele>
        <time>2025-08-24T11:27:31Z</time>
      </trkpt>
      <trkpt lat="46.05384" lon="3.5729">
        <ele>375.05</ele>
        <time>2025-08-24T11:27:55Z</time>
      </trkpt>
      <trkpt lat="46.053" lon="3.573">
        <ele>370.76</ele>
        <time>2025-08-24T11:28:19Z</time>
      </trkpt>
      <trkpt lat="46.05198" lon="3.57285">
        <ele>372.93</ele>
        <time>2025-08-24T11:28:51Z</time>
      </trkpt>
      <trkpt lat="46.05105" lon="3.57264">
        <ele>375.3</ele>
        <time>2025-08-24T11:29:15Z</time>
      </trkpt>
      <trkpt lat="46.05044" lon="3.57175">
        <ele>394.83</ele>
        <time>2025-08-24T11:30:03Z</time>
      </trkpt>
      <trkpt lat="46.05106" lon="3.57116">
        <ele>408.34</ele>
        <time>2025-08-24T11:32:19Z</time>
      </trkpt>
      <trkpt lat="46.05137" lon="3.57017">
        <ele>428.31</ele>
        <time>2025-08-24T11:33:47Z</time>
      </trkpt>
      <trkpt lat="46.05074" lon="3.56948">
        <ele>453.39</ele>
        <time>2025-08-24T11:35:15Z</time>
      </trkpt>
      <trkpt lat="46.05035" lon="3.56843">
        <ele>464.49</ele>
        <time>2025-08-24T11:36:51Z</time>
      </trkpt>
      <trkpt lat="46.0502" lon="3.56728">
        <ele>463.52</ele>
        <time>2025-08-24T11:37:31Z</time>
      </trkpt>
      <trkpt lat="46.05027" lon="3.56614">
        <ele>465.25</ele>
        <time>2025-08-24T11:38:19Z</time>
      </trkpt>
      <trkpt lat="46.05023" lon="3.56502">
        <ele>471.58</ele>
        <time>2025-08-24T11:38:59Z</time>
      </trkpt>
      <trkpt lat="46.05008" lon="3.56385">
        <ele>478.61</ele>
        <time>2025-08-24T11:40:03Z</time>
      </trkpt>
      <trkpt lat="46.05051" lon="3.5628">
        <ele>497.26</ele>
        <time>2025-08-24T11:41:15Z</time>
      </trkpt>
      <trkpt lat="46.05034" lon="3.56175">
        <ele>507.34</ele>
        <time>2025-08-24T11:42:03Z</time>
      </trkpt>
      <trkpt lat="46.05035" lon="3.56064">
        <ele>509.66</ele>
        <time>2025-08-24T11:42:51Z</time>
      </trkpt>
      <trkpt lat="46.05105" lon="3.56022">
        <ele>507.23</ele>
        <time>2025-08-24T11:43:23Z</time>
      </trkpt>
      <trkpt lat="46.05156" lon="3.55926">
        <ele>518.2</ele>
        <time>2025-08-24T11:44:11Z</time>
      </trkpt>
      <trkpt lat="46.05119" lon="3.55836">
        <ele>526.53</ele>
        <time>2025-08-24T11:44:43Z</time>
      </trkpt>
      <trkpt lat="46.05081" lon="3.55736">
        <ele>529.84</ele>
        <time>2025-08-24T11:45:23Z</time>
      </trkpt>
      <trkpt lat="46.05005" lon="3.5575">
        <ele>546.53</ele>
        <time>2025-08-24T11:46:11Z</time>
      </trkpt>
      <trkpt lat="46.04932" lon="3.55741">
        <ele>547.38</ele>
        <time>2025-08-24T11:46:51Z</time>
      </trkpt>
      <trkpt lat="46.04857" lon="3.55732">
        <ele>549.93</ele>
        <time>2025-08-24T11:47:23Z</time>
      </trkpt>
      <trkpt lat="46.04774" lon="3.55727">
        <ele>557.45</ele>
        <time>2025-08-24T11:48:03Z</time>
      </trkpt>
      <trkpt lat="46.04678" lon="3.55679">
        <ele>566</ele>
        <time>2025-08-24T11:48:43Z</time>
      </trkpt>
      <trkpt lat="46.04593" lon="3.55602">
        <ele>564.58</ele>
        <time>2025-08-24T11:49:07Z</time>
      </trkpt>
      <trkpt lat="46.0454" lon="3.55488">
        <ele>564.78</ele>
        <time>2025-08-24T11:49:31Z</time>
      </trkpt>
      <trkpt lat="46.04492" lon="3.55378">
        <ele>564.11</ele>
        <time>2025-08-24T11:49:55Z</time>
      </trkpt>
      <trkpt lat="46.0446" lon="3.55243">
        <ele>566.03</ele>
        <time>2025-08-24T11:50:19Z</time>
      </trkpt>
      <trkpt lat="46.04409" lon="3.55096">
        <ele>569.16</ele>
        <time>2025-08-24T11:50:43Z</time>
      </trkpt>
      <trkpt lat="46.04424" lon="3.54954">
        <ele>564.98</ele>
        <time>2025-08-24T11:50:59Z</time>
      </trkpt>
      <trkpt lat="46.04428" lon="3.54842">
        <ele>565.2</ele>
        <time>2025-08-24T11:51:15Z</time>
      </trkpt>
      <trkpt lat="46.04491" lon="3.54761">
        <ele>568.75</ele>
        <time>2025-08-24T11:51:39Z</time>
      </trkpt>
      <trkpt lat="46.04578" lon="3.54707">
        <ele>563.57</ele>
        <time>2025-08-24T11:52:03Z</time>
      </trkpt>
      <trkpt lat="46.0465" lon="3.54646">
        <ele>564.87</ele>
        <time>2025-08-24T11:52:35Z</time>
      </trkpt>
      <trkpt lat="46.0473" lon="3.54596">
        <ele>572.67</ele>
        <time>2025-08-24T11:53:07Z</time>
      </trkpt>
      <trkpt lat="46.04822" lon="3.54567">
        <ele>572.55</ele>
        <time>2025-08-24T11:53:39Z</time>
      </trkpt>
      <trkpt lat="46.049" lon="3.54557">
        <ele>571.25</ele>
        <time>2025-08-24T11:54:03Z</time>
      </trkpt>
      <trkpt lat="46.04972" lon="3.54602">
        <ele>567.33</ele>
        <time>2025-08-24T11:54:27Z</time>
      </trkpt>
      <trkpt lat="46.05063" lon="3.54633">
        <ele>563.38</ele>
        <time>2025-08-24T11:54:51Z</time>
      </trkpt>
      <trkpt lat="46.05162" lon="3.54679">
        <ele>561.8</ele>
        <time>2025-08-24T11:55:15Z</time>
      </trkpt>
      <trkpt lat="46.05268" lon="3.5473">
        <ele>559.67</ele>
        <time>2025-08-24T11:55:39Z</time>
      </trkpt>
      <trkpt lat="46.05364" lon="3.54761">
        <ele>551.98</ele>
        <time>2025-08-24T11:55:55Z</time>
      </trkpt>
      <trkpt lat="46.05439" lon="3.5478">
        <ele>546.02</ele>
        <time>2025-08-24T11:56:11Z</time>
      </trkpt>
      <trkpt lat="46.05546" lon="3.54788">
        <ele>527.59</ele>
        <time>2025-08-24T11:56:35Z</time>
      </trkpt>
      <trkpt lat="46.05654" lon="3.54804">
        <ele>516.63</ele>
        <time>2025-08-24T11:56:51Z</time>
      </trkpt>
      <trkpt lat="46.05769" lon="3.54775">
        <ele>498.74</ele>
        <time>2025-08-24T11:57:07Z</time>
      </trkpt>
      <trkpt lat="46.05762" lon="3.54654">
        <ele>498.98</ele>
        <time>2025-08-24T11:57:23Z</time>
      </trkpt>
      <trkpt lat="46.05783" lon="3.54539">
        <ele>498.18</ele>
        <time>2025-08-24T11:57:47Z</time>
      </trkpt>
      <trkpt lat="46.05771" lon="3.54366">
        <ele>490.84</ele>
        <time>2025-08-24T11:58:03Z</time>
      </trkpt>
      <trkpt lat="46.05769" lon="3.5419">
        <ele>485.21</ele>
        <time>2025-08-24T11:58:19Z</time>
      </trkpt>
      <trkpt lat="46.05832" lon="3.5406">
        <ele>483.11</ele>
        <time>2025-08-24T11:58:35Z</time>
      </trkpt>
      <trkpt lat="46.05843" lon="3.53951">
        <ele>487.78</ele>
        <time>2025-08-24T11:59:31Z</time>
      </trkpt>
      <trkpt lat="46.05837" lon="3.53834">
        <ele>497.61</ele>
        <time>2025-08-24T12:00:27Z</time>
      </trkpt>
      <trkpt lat="46.05803" lon="3.53732">
        <ele>510.98</ele>
        <time>2025-08-24T12:01:31Z</time>
      </trkpt>
      <trkpt lat="46.05776" lon="3.53635">
        <ele>518.35</ele>
        <time>2025-08-24T12:02:27Z</time>
      </trkpt>
      <trkpt lat="46.0577" lon="3.5353">
        <ele>535.57</ele>
        <time>2025-08-24T12:03:47Z</time>
      </trkpt>
      <trkpt lat="46.0578" lon="3.53419">
        <ele>536.97</ele>
        <time>2025-08-24T12:04:27Z</time>
      </trkpt>
      <trkpt lat="46.05828" lon="3.53298">
        <ele>533.07</ele>
        <time>2025-08-24T12:04:51Z</time>
      </trkpt>
      <trkpt lat="46.0588" lon="3.53195">
        <ele>526.4</ele>
        <time>2025-08-24T12:05:15Z</time>
      </trkpt>
      <trkpt lat="46.05935" lon="3.53098">
        <ele>524.12</ele>
        <time>2025-08-24T12:05:39Z</time>
      </trkpt>
      <trkpt lat="46.06006" lon="3.53079">
        <ele>524.13</ele>
        <time>2025-08-24T12:05:55Z</time>
      </trkpt>
      <trkpt lat="46.06062" lon="3.53011">
        <ele>522.72</ele>
        <time>2025-08-24T12:06:11Z</time>
      </trkpt>
      <trkpt lat="46.06131" lon="3.52975">
        <ele>522.75</ele>
        <time>2025-08-24T12:06:27Z</time>
      </trkpt>
      <trkpt lat="46.06207" lon="3.52968">
        <ele>519.06</ele>
        <time>2025-08-24T12:06:43Z</time>
      </trkpt>
      <trkpt lat="46.06288" lon="3.53002">
        <ele>519.31</ele>
        <time>2025-08-24T12:06:59Z</time>
      </trkpt>
      <trkpt lat="46.06394" lon="3.53026">
        <ele>523.01</ele>
        <time>2025-08-24T12:07:23Z</time>
      </trkpt>
      <trkpt lat="46.06483" lon="3.52941">
        <ele>525.05</ele>
        <time>2025-08-24T12:07:47Z</time>
      </trkpt>
      <trkpt lat="46.06498" lon="3.52827">
        <ele>529.45</ele>
        <time>2025-08-24T12:08:11Z</time>
      </trkpt>
      <trkpt lat="46.06456" lon="3.52711">
        <ele>536.03</ele>
        <time>2025-08-24T12:08:35Z</time>
      </trkpt>
      <trkpt lat="46.06413" lon="3.52583">
        <ele>537.72</ele>
        <time>2025-08-24T12:08:59Z</time>
      </trkpt>
      <trkpt lat="46.06384" lon="3.52478">
        <ele>528.78</ele>
        <time>2025-08-24T12:09:07Z</time>
      </trkpt>
      <trkpt lat="46.06344" lon="3.52385">
        <ele>522.81</ele>
        <time>2025-08-24T12:09:15Z</time>
      </trkpt>
      <trkpt lat="46.06299" lon="3.52286">
        <ele>516.26</ele>
        <time>2025-08-24T12:09:23Z</time>
      </trkpt>
      <trkpt lat="46.06256" lon="3.52177">
        <ele>509.68</ele>
        <time>2025-08-24T12:09:31Z</time>
      </trkpt>
      <trkpt lat="46.06252" lon="3.52046">
        <ele>499.37</ele>
        <time>2025-08-24T12:09:39Z</time>
      </trkpt>
      <trkpt lat="46.06252" lon="3.51909">
        <ele>488.37</ele>
        <time>2025-08-24T12:09:47Z</time>
      </trkpt>
      <trkpt lat="46.06294" lon="3.51815">
        <ele>473.25</ele>
        <time>2025-08-24T12:11:39Z</time>
      </trkpt>
      <trkpt lat="46.06286" lon="3.5171">
        <ele>495.58</ele>
        <time>2025-08-24T12:12:43Z</time>
      </trkpt>
      <trkpt lat="46.06276" lon="3.51592">
        <ele>510.29</ele>
        <time>2025-08-24T12:13:47Z</time>
      </trkpt>
      <trkpt lat="46.06264" lon="3.51489">
        <ele>522.64</ele>
        <time>2025-08-24T12:14:35Z</time>
      </trkpt>
      <trkpt lat="46.06271" lon="3.51365">
        <ele>533.59</ele>
        <time>2025-08-24T12:15:15Z</time>
      </trkpt>
      <trkpt lat="46.06264" lon="3.51256">
        <ele>521.68</ele>
        <time>2025-08-24T12:15:31Z</time>
      </trkpt>
      <trkpt lat="46.06266" lon="3.5114">
        <ele>514.6</ele>
        <time>2025-08-24T12:15:47Z</time>
      </trkpt>
      <trkpt lat="46.06322" lon="3.51046">
        <ele>509.87</ele>
        <time>2025-08-24T12:16:19Z</time>
      </trkpt>
      <trkpt lat="46.06391" lon="3.51">
        <ele>507.21</ele>
        <time>2025-08-24T12:16:43Z</time>
      </trkpt>
      <trkpt lat="46.06467" lon="3.50964">
        <ele>506.35</ele>
        <time>2025-08-24T12:16:59Z</time>
      </trkpt>
      <trkpt lat="46.06523" lon="3.51065">
        <ele>499.77</ele>
        <time>2025-08-24T12:17:15Z</time>
      </trkpt>
      <trkpt lat="46.06596" lon="3.51201">
        <ele>492.69</ele>
        <time>2025-08-24T12:17:31Z</time>
      </trkpt>
      <trkpt lat="46.06645" lon="3.51284">
        <ele>487.55</ele>
        <time>2025-08-24T12:17:39Z</time>
      </trkpt>
      <trkpt lat="46.06715" lon="3.51425">
        <ele>463.99</ele>
        <time>2025-08-24T12:17:55Z</time>
      </trkpt>
      <trkpt lat="46.06803" lon="3.51558">
        <ele>449.4</ele>
        <time>2025-08-24T12:18:11Z</time>
      </trkpt>
      <trkpt lat="46.06892" lon="3.51553">
        <ele>440.33</ele>
        <time>2025-08-24T12:18:35Z</time>
      </trkpt>
      <trkpt lat="46.06969" lon="3.51568">
        <ele>445.52</ele>
        <time>2025-08-24T12:18:51Z</time>
      </trkpt>
      <trkpt lat="46.07065" lon="3.51619">
        <ele>450.51</ele>
        <time>2025-08-24T12:19:07Z</time>
      </trkpt>
      <trkpt lat="46.07128" lon="3.51728">
        <ele>447.35</ele>
        <time>2025-08-24T12:19:23Z</time>
      </trkpt>
      <trkpt lat="46.07133" lon="3.51847">
        <ele>447.71</ele>
        <time>2025-08-24T12:19:39Z</time>
      </trkpt>
      <trkpt lat="46.07192" lon="3.5178">
        <ele>448.58</ele>
        <time>2025-08-24T12:20:27Z</time>
      </trkpt>
      <trkpt lat="46.07275" lon="3.51736">
        <ele>448.67</ele>
        <time>2025-08-24T12:21:23Z</time>
      </trkpt>
      <trkpt lat="46.07354" lon="3.5174">
        <ele>456.99</ele>
        <time>2025-08-24T12:22:35Z</time>
      </trkpt>
      <trkpt lat="46.07418" lon="3.51805">
        <ele>468.34</ele>
        <time>2025-08-24T12:23:47Z</time>
      </trkpt>
      <trkpt lat="46.07449" lon="3.51911">
        <ele>477.85</ele>
        <time>2025-08-24T12:25:15Z</time>
      </trkpt>
      <trkpt lat="46.07501" lon="3.51994">
        <ele>488.75</ele>
        <time>2025-08-24T12:25:55Z</time>
      </trkpt>
      <trkpt lat="46.07581" lon="3.51992">
        <ele>494.01</ele>
        <time>2025-08-24T12:26:43Z</time>
      </trkpt>
      <trkpt lat="46.07661" lon="3.51993">
        <ele>498.73</ele>
        <time>2025-08-24T12:27:31Z</time>
      </trkpt>
      <trkpt lat="46.07738" lon="3.51984">
        <ele>509.94</ele>
        <time>2025-08-24T12:28:19Z</time>
      </trkpt>
      <trkpt lat="46.07814" lon="3.51977">
        <ele>517.84</ele>
        <time>2025-08-24T12:28:59Z</time>
      </trkpt>
      <trkpt lat="46.07891" lon="3.51987">
        <ele>520.65</ele>
        <time>2025-08-24T12:29:23Z</time>
      </trkpt>
      <trkpt lat="46.07976" lon="3.51996">
        <ele>525.35</ele>
        <time>2025-08-24T12:29:47Z</time>
      </trkpt>
      <trkpt lat="46.08052" lon="3.52007">
        <ele>523.79</ele>
        <time>2025-08-24T12:30:11Z</time>
      </trkpt>
      <trkpt lat="46.08125" lon="3.52023">
        <ele>526.71</ele>
        <time>2025-08-24T12:30:35Z</time>
      </trkpt>
      <trkpt lat="46.08231" lon="3.51964">
        <ele>522.37</ele>
        <time>2025-08-24T12:30:59Z</time>
      </trkpt>
      <trkpt lat="46.08306" lon="3.51883">
        <ele>512.22</ele>
        <time>2025-08-24T12:31:15Z</time>
      </trkpt>
      <trkpt lat="46.08372" lon="3.51795">
        <ele>509.73</ele>
        <time>2025-08-24T12:31:31Z</time>
      </trkpt>
      <trkpt lat="46.08437" lon="3.51709">
        <ele>504.96</ele>
        <time>2025-08-24T12:31:47Z</time>
      </trkpt>
      <trkpt lat="46.08516" lon="3.516">
        <ele>500.9</ele>
        <time>2025-08-24T12:32:03Z</time>
      </trkpt>
      <trkpt lat="46.08587" lon="3.51517">
        <ele>513.42</ele>
        <time>2025-08-24T12:32:19Z</time>
      </trkpt>
      <trkpt lat="46.0863" lon="3.51405">
        <ele>513.04</ele>
        <time>2025-08-24T12:32:35Z</time>
      </trkpt>
      <trkpt lat="46.08672" lon="3.51258">
        <ele>508.56</ele>
        <time>2025-08-24T12:32:51Z</time>
      </trkpt>
      <trkpt lat="46.08704" lon="3.51134">
        <ele>500.5</ele>
        <time>2025-08-24T12:33:07Z</time>
      </trkpt>
      <trkpt lat="46.08788" lon="3.51155">
        <ele>500.68</ele>
        <time>2025-08-24T12:33:31Z</time>
      </trkpt>
      <trkpt lat="46.08867" lon="3.5116">
        <ele>514.15</ele>
        <time>2025-08-24T12:33:47Z</time>
      </trkpt>
      <trkpt lat="46.08955" lon="3.51202">
        <ele>517.56</ele>
        <time>2025-08-24T12:34:03Z</time>
      </trkpt>
      <trkpt lat="46.09048" lon="3.51212">
        <ele>517.56</ele>
        <time>2025-08-24T12:34:19Z</time>
      </trkpt>
      <trkpt lat="46.09039" lon="3.51096">
        <ele>483.93</ele>
        <time>2025-08-24T12:34:51Z</time>
      </trkpt>
      <trkpt lat="46.09015" lon="3.50983">
        <ele>492.32</ele>
        <time>2025-08-24T12:35:15Z</time>
      </trkpt>
      <trkpt lat="46.0906" lon="3.50899">
        <ele>493.93</ele>
        <time>2025-08-24T12:35:31Z</time>
      </trkpt>
      <trkpt lat="46.09123" lon="3.5079">
        <ele>492.35</ele>
        <time>2025-08-24T12:35:47Z</time>
      </trkpt>
      <trkpt lat="46.09177" lon="3.50696">
        <ele>485.56</ele>
        <time>2025-08-24T12:35:55Z</time>
      </trkpt>
      <trkpt lat="46.09244" lon="3.50618">
        <ele>457.78</ele>
        <time>2025-08-24T12:36:11Z</time>
      </trkpt>
      <trkpt lat="46.0934" lon="3.50655">
        <ele>446.98</ele>
        <time>2025-08-24T12:36:35Z</time>
      </trkpt>
      <trkpt lat="46.09443" lon="3.50693">
        <ele>435.03</ele>
        <time>2025-08-24T12:36:51Z</time>
      </trkpt>
      <trkpt lat="46.09528" lon="3.50769">
        <ele>442.53</ele>
        <time>2025-08-24T12:37:47Z</time>
      </trkpt>
      <trkpt lat="46.09601" lon="3.50837">
        <ele>452.06</ele>
        <time>2025-08-24T12:38:27Z</time>
      </trkpt>
      <trkpt lat="46.09683" lon="3.50867">
        <ele>463.88</ele>
        <time>2025-08-24T12:38:59Z</time>
      </trkpt>
      <trkpt lat="46.09734" lon="3.50784">
        <ele>428.43</ele>
        <time>2025-08-24T12:39:39Z</time>
      </trkpt>
      <trkpt lat="46.09795" lon="3.5071">
        <ele>439.75</ele>
        <time>2025-08-24T12:40:11Z</time>
      </trkpt>
      <trkpt lat="46.09894" lon="3.50709">
        <ele>464.67</ele>
        <time>2025-08-24T12:40:35Z</time>
      </trkpt>
      <trkpt lat="46.09963" lon="3.50676">
        <ele>453.04</ele>
        <time>2025-08-24T12:40:51Z</time>
      </trkpt>
      <trkpt lat="46.1" lon="3.50586">
        <ele>431.35</ele>
        <time>2025-08-24T12:41:07Z</time>
      </trkpt>
      <trkpt lat="46.10017" lon="3.50396">
        <ele>424.04</ele>
        <time>2025-08-24T12:41:31Z</time>
      </trkpt>
      <trkpt lat="46.09993" lon="3.50233">
        <ele>421.34</ele>
        <time>2025-08-24T12:41:47Z</time>
      </trkpt>
      <trkpt lat="46.09937" lon="3.50127">
        <ele>421.5</ele>
        <time>2025-08-24T12:42:11Z</time>
      </trkpt>
      <trkpt lat="46.09865" lon="3.50049">
        <ele>435.17</ele>
        <time>2025-08-24T12:42:43Z</time>
      </trkpt>
      <trkpt lat="46.09979" lon="3.50012">
        <ele>420.93</ele>
        <time>2025-08-24T12:42:59Z</time>
      </trkpt>
      <trkpt lat="46.10051" lon="3.49868">
        <ele>406.28</ele>
        <time>2025-08-24T12:43:15Z</time>
      </trkpt>
      <trkpt lat="46.10041" lon="3.49744">
        <ele>412.14</ele>
        <time>2025-08-24T12:43:31Z</time>
      </trkpt>
      <trkpt lat="46.10143" lon="3.4969">
        <ele>413.85</ele>
        <time>2025-08-24T12:43:55Z</time>
      </trkpt>
      <trkpt lat="46.10221" lon="3.49608">
        <ele>416.38</ele>
        <time>2025-08-24T12:44:11Z</time>
      </trkpt>
      <trkpt lat="46.1019" lon="3.49493">
        <ele>420.09</ele>
        <time>2025-08-24T12:44:27Z</time>
      </trkpt>
      <trkpt lat="46.10278" lon="3.49434">
        <ele>411.78</ele>
        <time>2025-08-24T12:44:51Z</time>
      </trkpt>
      <trkpt lat="46.10276" lon="3.49266">
        <ele>407.58</ele>
        <time>2025-08-24T12:45:07Z</time>
      </trkpt>
      <trkpt lat="46.10237" lon="3.49166">
        <ele>400.56</ele>
        <time>2025-08-24T12:45:15Z</time>
      </trkpt>
      <trkpt lat="46.10256" lon="3.49055">
        <ele>391.23</ele>
        <time>2025-08-24T12:45:31Z</time>
      </trkpt>
      <trkpt lat="46.10372" lon="3.4902">
        <ele>381.48</ele>
        <time>2025-08-24T12:45:47Z</time>
      </trkpt>
      <trkpt lat="46.1044" lon="3.48849">
        <ele>377.13</ele>
        <time>2025-08-24T12:46:03Z</time>
      </trkpt>
      <trkpt lat="46.10471" lon="3.48753">
        <ele>372.11</ele>
        <time>2025-08-24T12:46:11Z</time>
      </trkpt>
      <trkpt lat="46.10406" lon="3.48643">
        <ele>365.13</ele>
        <time>2025-08-24T12:46:27Z</time>
      </trkpt>
      <trkpt lat="46.10336" lon="3.48557">
        <ele>360.45</ele>
        <time>2025-08-24T12:46:43Z</time>
      </trkpt>
      <trkpt lat="46.10289" lon="3.48479">
        <ele>355.27</ele>
        <time>2025-08-24T12:46:51Z</time>
      </trkpt>
      <trkpt lat="46.1023" lon="3.48394">
        <ele>348.89</ele>
        <time>2025-08-24T12:46:59Z</time>
      </trkpt>
      <trkpt lat="46.10168" lon="3.48308">
        <ele>341.38</ele>
        <time>2025-08-24T12:47:15Z</time>
      </trkpt>
      <trkpt lat="46.10095" lon="3.48235">
        <ele>345.67</ele>
        <time>2025-08-24T12:47:55Z</time>
      </trkpt>
      <trkpt lat="46.1008" lon="3.48134">
        <ele>368.68</ele>
        <time>2025-08-24T12:48:43Z</time>
      </trkpt>
      <trkpt lat="46.1003" lon="3.48038">
        <ele>370.27</ele>
        <time>2025-08-24T12:49:39Z</time>
      </trkpt>
      <trkpt lat="46.10012" lon="3.47925">
        <ele>385.05</ele>
        <time>2025-08-24T12:50:35Z</time>
      </trkpt>
      <trkpt lat="46.10056" lon="3.47831">
        <ele>390.42</ele>
        <time>2025-08-24T12:51:31Z</time>
      </trkpt>
      <trkpt lat="46.1012" lon="3.47736">
        <ele>384.26</ele>
        <time>2025-08-24T12:52:03Z</time>
      </trkpt>
      <trkpt lat="46.10125" lon="3.47624">
        <ele>380.28</ele>
        <time>2025-08-24T12:52:51Z</time>
      </trkpt>
      <trkpt lat="46.10118" lon="3.47517">
        <ele>391.3</ele>
        <time>2025-08-24T12:53:39Z</time>
      </trkpt>
      <trkpt lat="46.10137" lon="3.47391">
        <ele>393.19</ele>
        <time>2025-08-24T12:54:11Z</time>
      </trkpt>
      <trkpt lat="46.10192" lon="3.47262">
        <ele>388.93</ele>
        <time>2025-08-24T12:54:35Z</time>
      </trkpt>
      <trkpt lat="46.1026" lon="3.47139">
        <ele>384.8</ele>
        <time>2025-08-24T12:54:59Z</time>
      </trkpt>
      <trkpt lat="46.10338" lon="3.47075">
        <ele>383.62</ele>
        <time>2025-08-24T12:55:23Z</time>
      </trkpt>
      <trkpt lat="46.10306" lon="3.46974">
        <ele>399.69</ele>
        <time>2025-08-24T12:56:11Z</time>
      </trkpt>
      <trkpt lat="46.10371" lon="3.46922">
        <ele>399.01</ele>
        <time>2025-08-24T12:56:51Z</time>
      </trkpt>
      <trkpt lat="46.10463" lon="3.46878">
        <ele>398.42</ele>
        <time>2025-08-24T12:57:23Z</time>
      </trkpt>
      <trkpt lat="46.10558" lon="3.46846">
        <ele>400.41</ele>
        <time>2025-08-24T12:57:47Z</time>
      </trkpt>
      <trkpt lat="46.10655" lon="3.46797">
        <ele>403.59</ele>
        <time>2025-08-24T12:58:19Z</time>
      </trkpt>
      <trkpt lat="46.10716" lon="3.46741">
        <ele>404.09</ele>
        <time>2025-08-24T12:58:35Z</time>
      </trkpt>
      <trkpt lat="46.10764" lon="3.46638">
        <ele>402.21</ele>
        <time>2025-08-24T12:58:59Z</time>
      </trkpt>
      <trkpt lat="46.1077" lon="3.4653">
        <ele>413.59</ele>
        <time>2025-08-24T12:59:23Z</time>
      </trkpt>
      <trkpt lat="46.10847" lon="3.46488">
        <ele>409.51</ele>
        <time>2025-08-24T12:59:47Z</time>
      </trkpt>
      <trkpt lat="46.10929" lon="3.46468">
        <ele>408.04</ele>
        <time>2025-08-24T13:00:03Z</time>
      </trkpt>
      <trkpt lat="46.11047" lon="3.46456">
        <ele>402.51</ele>
        <time>2025-08-24T13:00:19Z</time>
      </trkpt>
      <trkpt lat="46.11138" lon="3.46469">
        <ele>397.97</ele>
        <time>2025-08-24T13:00:43Z</time>
      </trkpt>
      <trkpt lat="46.11225" lon="3.46466">
        <ele>403.56</ele>
        <time>2025-08-24T13:01:07Z</time>
      </trkpt>
      <trkpt lat="46.11302" lon="3.4647">
        <ele>405.14</ele>
        <time>2025-08-24T13:01:31Z</time>
      </trkpt>
      <trkpt lat="46.11385" lon="3.46481">
        <ele>407.9</ele>
        <time>2025-08-24T13:02:03Z</time>
      </trkpt>
      <trkpt lat="46.11485" lon="3.46502">
        <ele>403.09</ele>
        <time>2025-08-24T13:02:19Z</time>
      </trkpt>
      <trkpt lat="46.11543" lon="3.46432">
        <ele>387.94</ele>
        <time>2025-08-24T13:02:35Z</time>
      </trkpt>
      <trkpt lat="46.11613" lon="3.46361">
        <ele>376.32</ele>
        <time>2025-08-24T13:02:51Z</time>
      </trkpt>
      <trkpt lat="46.11704" lon="3.4634">
        <ele>373.48</ele>
        <time>2025-08-24T13:03:07Z</time>
      </trkpt>
      <trkpt lat="46.11812" lon="3.46312">
        <ele>365.95</ele>
        <time>2025-08-24T13:03:39Z</time>
      </trkpt>
      <trkpt lat="46.11903" lon="3.46261">
        <ele>355.13</ele>
        <time>2025-08-24T13:03:55Z</time>
      </trkpt>
      <trkpt lat="46.11993" lon="3.46218">
        <ele>350.13</ele>
        <time>2025-08-24T13:04:11Z</time>
      </trkpt>
      <trkpt lat="46.12086" lon="3.46214">
        <ele>353.27</ele>
        <time>2025-08-24T13:04:27Z</time>
      </trkpt>
      <trkpt lat="46.12164" lon="3.46255">
        <ele>347.73</ele>
        <time>2025-08-24T13:04:43Z</time>
      </trkpt>
      <trkpt lat="46.1226" lon="3.46265">
        <ele>348.1</ele>
        <time>2025-08-24T13:05:07Z</time>
      </trkpt>
      <trkpt lat="46.12323" lon="3.46198">
        <ele>343.14</ele>
        <time>2025-08-24T13:05:23Z</time>
      </trkpt>
      <trkpt lat="46.12393" lon="3.46131">
        <ele>341.34</ele>
        <time>2025-08-24T13:05:39Z</time>
      </trkpt>
      <trkpt lat="46.12465" lon="3.46115">
        <ele>343.54</ele>
        <time>2025-08-24T13:05:55Z</time>
      </trkpt>
      <trkpt lat="46.12537" lon="3.46059">
        <ele>340.11</ele>
        <time>2025-08-24T13:06:11Z</time>
      </trkpt>
      <trkpt lat="46.12609" lon="3.46001">
        <ele>354.41</ele>
        <time>2025-08-24T13:06:43Z</time>
      </trkpt>
      <trkpt lat="46.12679" lon="3.45966">
        <ele>337.82</ele>
        <time>2025-08-24T13:07:23Z</time>
      </trkpt>
      <trkpt lat="46.12757" lon="3.45894">
        <ele>310.77</ele>
        <time>2025-08-24T13:07:47Z</time>
      </trkpt>
      <trkpt lat="46.1284" lon="3.45944">
        <ele>303.57</ele>
        <time>2025-08-24T13:08:19Z</time>
      </trkpt>
      <trkpt lat="46.1292" lon="3.45975">
        <ele>281.06</ele>
        <time>2025-08-24T13:08:59Z</time>
      </trkpt>
      <trkpt lat="46.1301" lon="3.45936">
        <ele>275.29</ele>
        <time>2025-08-24T13:09:31Z</time>
      </trkpt>
      <trkpt lat="46.1309" lon="3.45909">
        <ele>273.65</ele>
        <time>2025-08-24T13:10:03Z</time>
      </trkpt>
      <trkpt lat="46.13182" lon="3.45893">
        <ele>285.5</ele>
        <time>2025-08-24T13:10:35Z</time>
      </trkpt>
      <trkpt lat="46.13281" lon="3.45919">
        <ele>305.31</ele>
        <time>2025-08-24T13:11:07Z</time>
      </trkpt>
      <trkpt lat="46.13363" lon="3.45866">
        <ele>284.05</ele>
        <time>2025-08-24T13:11:31Z</time>
      </trkpt>
      <trkpt lat="46.13421" lon="3.45748">
        <ele>279.3</ele>
        <time>2025-08-24T13:11:55Z</time>
      </trkpt>
      <trkpt lat="46.13474" lon="3.45661">
        <ele>281.18</ele>
        <time>2025-08-24T13:12:19Z</time>
      </trkpt>
      <trkpt lat="46.1353" lon="3.45582">
        <ele>281.25</ele>
        <time>2025-08-24T13:12:35Z</time>
      </trkpt>
      <trkpt lat="46.13626" lon="3.45573">
        <ele>285.16</ele>
        <time>2025-08-24T13:12:59Z</time>
      </trkpt>
      <trkpt lat="46.13661" lon="3.45457">
        <ele>292.95</ele>
        <time>2025-08-24T13:13:23Z</time>
      </trkpt>
      <trkpt lat="46.13698" lon="3.45365">
        <ele>272.46</ele>
        <time>2025-08-24T13:13:39Z</time>
      </trkpt>
      <trkpt lat="46.13775" lon="3.45396">
        <ele>284.77</ele>
        <time>2025-08-24T13:14:11Z</time>
      </trkpt>
      <trkpt lat="46.13844" lon="3.45344">
        <ele>277.08</ele>
        <time>2025-08-24T13:14:43Z</time>
      </trkpt>
      <trkpt lat="46.13859" lon="3.45233">
        <ele>270.31</ele>
        <time>2025-08-24T13:14:59Z</time>
      </trkpt>
      <trkpt lat="46.13869" lon="3.45119">
        <ele>272.66</ele>
        <time>2025-08-24T13:15:15Z</time>
      </trkpt>
      <trkpt lat="46.13868" lon="3.45006">
        <ele>276.07</ele>
        <time>2025-08-24T13:15:31Z</time>
      </trkpt>
      <trkpt lat="46.13966" lon="3.44966">
        <ele>279.56</ele>
        <time>2025-08-24T13:15:55Z</time>
      </trkpt>
      <trkpt lat="46.14039" lon="3.4496">
        <ele>274.87</ele>
        <time>2025-08-24T13:16:19Z</time>
      </trkpt>
      <trkpt lat="46.14135" lon="3.44936">
        <ele>280.82</ele>
        <time>2025-08-24T13:16:51Z</time>
      </trkpt>
      <trkpt lat="46.14208" lon="3.44926">
        <ele>283.28</ele>
        <time>2025-08-24T13:17:31Z</time>
      </trkpt>
      <trkpt lat="46.14295" lon="3.44936">
        <ele>284.84</ele>
        <time>2025-08-24T13:18:03Z</time>
      </trkpt>
      <trkpt lat="46.14356" lon="3.44852">
        <ele>290.38</ele>
        <time>2025-08-24T13:18:51Z</time>
      </trkpt>
      <trkpt lat="46.14393" lon="3.44758">
        <ele>296.75</ele>
        <time>2025-08-24T13:19:31Z</time>
      </trkpt>
      <trkpt lat="46.14462" lon="3.44695">
        <ele>303.63</ele>
        <time>2025-08-24T13:20:19Z</time>
      </trkpt>
      <trkpt lat="46.14535" lon="3.44643">
        <ele>308.75</ele>
        <time>2025-08-24T13:21:07Z</time>
      </trkpt>
      <trkpt lat="46.14593" lon="3.44566">
        <ele>307.76</ele>
        <time>2025-08-24T13:21:31Z</time>
      </trkpt>
      <trkpt lat="46.14648" lon="3.44493">
        <ele>303.85</ele>
        <time>2025-08-24T13:21:47Z</time>
      </trkpt>
      <trkpt lat="46.14695" lon="3.4441">
        <ele>301.19</ele>
        <time>2025-08-24T13:22:03Z</time>
      </trkpt>
      <trkpt lat="46.14753" lon="3.44306">
        <ele>303.66</ele>
        <time>2025-08-24T13:22:27Z</time>
      </trkpt>
      <trkpt lat="46.1482" lon="3.44243">
        <ele>311.92</ele>
        <time>2025-08-24T13:22:51Z</time>
      </trkpt>
      <trkpt lat="46.14903" lon="3.44164">
        <ele>314.59</ele>
        <time>2025-08-24T13:23:23Z</time>
      </trkpt>
      <trkpt lat="46.14977" lon="3.44131">
        <ele>314.16</ele>
        <time>2025-08-24T13:23:47Z</time>
      </trkpt>
      <trkpt lat="46.15061" lon="3.44096">
        <ele>319.13</ele>
        <time>2025-08-24T13:24:11Z</time>
      </trkpt>
      <trkpt lat="46.15128" lon="3.4406">
        <ele>316.9</ele>
        <time>2025-08-24T13:24:27Z</time>
      </trkpt>
      <trkpt lat="46.15226" lon="3.4403">
        <ele>321.49</ele>
        <time>2025-08-24T13:24:51Z</time>
      </trkpt>
      <trkpt lat="46.15309" lon="3.44037">
        <ele>324.17</ele>
        <time>2025-08-24T13:25:23Z</time>
      </trkpt>
      <trkpt lat="46.15397" lon="3.44031">
        <ele>319.7</ele>
        <time>2025-08-24T13:25:55Z</time>
      </trkpt>
      <trkpt lat="46.15476" lon="3.44005">
        <ele>325.9</ele>
        <time>2025-08-24T13:26:35Z</time>
      </trkpt>
      <trkpt lat="46.15559" lon="3.43989">
        <ele>340.36</ele>
        <time>2025-08-24T13:27:15Z</time>
      </trkpt>
      <trkpt lat="46.15644" lon="3.43995">
        <ele>328.17</ele>
        <time>2025-08-24T13:27:47Z</time>
      </trkpt>
      <trkpt lat="46.15718" lon="3.44035">
        <ele>339.93</ele>
        <time>2025-08-24T13:28:19Z</time>
      </trkpt>
      <trkpt lat="46.15801" lon="3.44078">
        <ele>360.77</ele>
        <time>2025-08-24T13:29:07Z</time>
      </trkpt>
      <trkpt lat="46.15881" lon="3.44062">
        <ele>348.44</ele>
        <time>2025-08-24T13:29:39Z</time>
      </trkpt>
      <trkpt lat="46.1591" lon="3.43956">
        <ele>368.97</ele>
        <time>2025-08-24T13:30:59Z</time>
      </trkpt>
      <trkpt lat="46.15941" lon="3.43844">
        <ele>381.51</ele>
        <time>2025-08-24T13:32:11Z</time>
      </trkpt>
      <trkpt lat="46.16009" lon="3.43776">
        <ele>385.87</ele>
        <time>2025-08-24T13:32:43Z</time>
      </trkpt>
      <trkpt lat="46.16056" lon="3.43693">
        <ele>386.15</ele>
        <time>2025-08-24T13:33:07Z</time>
      </trkpt>
      <trkpt lat="46.16159" lon="3.437">
        <ele>381.71</ele>
        <time>2025-08-24T13:33:23Z</time>
      </trkpt>
      <trkpt lat="46.1624" lon="3.43703">
        <ele>369.14</ele>
        <time>2025-08-24T13:33:31Z</time>
      </trkpt>
      <trkpt lat="46.16315" lon="3.43672">
        <ele>359.49</ele>
        <time>2025-08-24T13:33:39Z</time>
      </trkpt>
      <trkpt lat="46.16392" lon="3.43588">
        <ele>348.33</ele>
        <time>2025-08-24T13:33:47Z</time>
      </trkpt>
      <trkpt lat="46.16463" lon="3.43572">
        <ele>340.51</ele>
        <time>2025-08-24T13:33:55Z</time>
      </trkpt>
      <trkpt lat="46.16557" lon="3.43595">
        <ele>333.29</ele>
        <time>2025-08-24T13:34:11Z</time>
      </trkpt>
      <trkpt lat="46.16673" lon="3.43597">
        <ele>337.29</ele>
        <time>2025-08-24T13:34:35Z</time>
      </trkpt>
      <trkpt lat="46.16753" lon="3.4361">
        <ele>335.42</ele>
        <time>2025-08-24T13:34:51Z</time>
      </trkpt>
      <trkpt lat="46.16846" lon="3.43612">
        <ele>326.27</ele>
        <time>2025-08-24T13:35:15Z</time>
      </trkpt>
      <trkpt lat="46.16948" lon="3.43554">
        <ele>323.38</ele>
        <time>2025-08-24T13:35:31Z</time>
      </trkpt>
      <trkpt lat="46.17078" lon="3.43652">
        <ele>309.82</ele>
        <time>2025-08-24T13:35:47Z</time>
      </trkpt>
      <trkpt lat="46.17196" lon="3.43617">
        <ele>304.84</ele>
        <time>2025-08-24T13:36:03Z</time>
      </trkpt>
      <trkpt lat="46.17268" lon="3.43531">
        <ele>299.02</ele>
        <time>2025-08-24T13:36:19Z</time>
      </trkpt>
      <trkpt lat="46.17217" lon="3.43432">
        <ele>326.77</ele>
        <time>2025-08-24T13:36:59Z</time>
      </trkpt>
      <trkpt lat="46.17202" lon="3.43305">
        <ele>340.52</ele>
        <time>2025-08-24T13:37:31Z</time>
      </trkpt>
      <trkpt lat="46.17147" lon="3.43198">
        <ele>325.55</ele>
        <time>2025-08-24T13:37:55Z</time>
      </trkpt>
      <trkpt lat="46.1705" lon="3.43107">
        <ele>312.6</ele>
        <time>2025-08-24T13:38:11Z</time>
      </trkpt>
    </trkseg>
  </trk>
</gpx>